sensor_id;sensor_type;location;lat;lon;timestamp;P1;durP1;ratioP1;P2;durP2;ratioP2
29940;SDS011;16801;53.562;10.038;2023-04-01T00:02:04;3.03;;;2.33;;
29940;SDS011;16801;53.562;10.038;2023-04-01T00:05:24;6.10;;;2.30;;
29940;SDS011;16801;53.562;10.038;2023-04-01T00:08:47;2.87;;;2.20;;
29940;SDS011;16801;53.562;10.038;2023-04-01T00:12:07;3.40;;;2.73;;
29940;SDS011;16801;53.562;10.038;2023-04-01T00:15:29;7.77;;;4.07;;
29940;SDS011;16801;53.562;10.038;2023-04-01T00:18:50;5.30;;;2.50;;
29940;SDS011;16801;53.562;10.038;2023-04-01T00:22:11;3.17;;;2.00;;
29940;SDS011;16801;53.562;10.038;2023-04-01T00:25:33;4.17;;;2.17;;
29940;SDS011;16801;53.562;10.038;2023-04-01T00:28:54;3.03;;;2.40;;
29940;SDS011;16801;53.562;10.038;2023-04-01T00:32:15;4.83;;;3.67;;
29940;SDS011;16801;53.562;10.038;2023-04-01T00:35:36;6.10;;;3.10;;
29940;SDS011;16801;53.562;10.038;2023-04-01T00:38:57;4.33;;;2.63;;
29940;SDS011;16801;53.562;10.038;2023-04-01T00:42:21;3.00;;;2.13;;
29940;SDS011;16801;53.562;10.038;2023-04-01T00:45:43;3.77;;;2.30;;
29940;SDS011;16801;53.562;10.038;2023-04-01T00:49:05;2.23;;;2.10;;
29940;SDS011;16801;53.562;10.038;2023-04-01T00:52:25;6.13;;;2.77;;
29940;SDS011;16801;53.562;10.038;2023-04-01T00:55:49;3.97;;;1.90;;
29940;SDS011;16801;53.562;10.038;2023-04-01T00:59:16;3.70;;;2.10;;
29940;SDS011;16801;53.562;10.038;2023-04-01T01:02:41;2.23;;;2.03;;
29940;SDS011;16801;53.562;10.038;2023-04-01T01:06:08;2.50;;;2.23;;
29940;SDS011;16801;53.562;10.038;2023-04-01T01:09:35;1.97;;;1.77;;
29940;SDS011;16801;53.562;10.038;2023-04-01T01:13:04;4.47;;;4.17;;
29940;SDS011;16801;53.562;10.038;2023-04-01T01:16:32;2.13;;;1.93;;
29940;SDS011;16801;53.562;10.038;2023-04-01T01:20:12;4.37;;;2.60;;
29940;SDS011;16801;53.562;10.038;2023-04-01T01:23:43;2.70;;;2.57;;
29940;SDS011;16801;53.562;10.038;2023-04-01T01:27:28;3.40;;;2.90;;
29940;SDS011;16801;53.562;10.038;2023-04-01T01:30:52;3.33;;;2.53;;
29940;SDS011;16801;53.562;10.038;2023-04-01T01:34:22;2.30;;;1.70;;
29940;SDS011;16801;53.562;10.038;2023-04-01T01:37:50;1.93;;;1.83;;
29940;SDS011;16801;53.562;10.038;2023-04-01T01:41:14;1.87;;;1.67;;
29940;SDS011;16801;53.562;10.038;2023-04-01T01:44:39;3.17;;;2.60;;
29940;SDS011;16801;53.562;10.038;2023-04-01T01:48:03;3.70;;;3.27;;
29940;SDS011;16801;53.562;10.038;2023-04-01T01:51:25;3.60;;;1.83;;
29940;SDS011;16801;53.562;10.038;2023-04-01T01:54:50;4.13;;;1.60;;
29940;SDS011;16801;53.562;10.038;2023-04-01T01:58:14;3.33;;;2.80;;
29940;SDS011;16801;53.562;10.038;2023-04-01T02:01:42;3.30;;;2.73;;
29940;SDS011;16801;53.562;10.038;2023-04-01T02:05:07;2.97;;;1.87;;
29940;SDS011;16801;53.562;10.038;2023-04-01T02:08:33;2.13;;;2.03;;
29940;SDS011;16801;53.562;10.038;2023-04-01T02:12:00;2.03;;;1.90;;
29940;SDS011;16801;53.562;10.038;2023-04-01T02:15:29;2.37;;;2.17;;
29940;SDS011;16801;53.562;10.038;2023-04-01T02:18:54;2.43;;;1.70;;
29940;SDS011;16801;53.562;10.038;2023-04-01T02:22:20;3.53;;;2.30;;
29940;SDS011;16801;53.562;10.038;2023-04-01T02:25:44;3.70;;;3.37;;
29940;SDS011;16801;53.562;10.038;2023-04-01T02:29:08;1.70;;;1.60;;
29940;SDS011;16801;53.562;10.038;2023-04-01T02:32:32;3.43;;;1.60;;
29940;SDS011;16801;53.562;10.038;2023-04-01T02:35:57;2.10;;;1.90;;
29940;SDS011;16801;53.562;10.038;2023-04-01T02:39:19;2.73;;;2.17;;
29940;SDS011;16801;53.562;10.038;2023-04-01T02:42:40;2.27;;;1.97;;
29940;SDS011;16801;53.562;10.038;2023-04-01T02:46:02;3.33;;;2.30;;
29940;SDS011;16801;53.562;10.038;2023-04-01T02:49:23;3.03;;;2.03;;
29940;SDS011;16801;53.562;10.038;2023-04-01T02:52:44;2.53;;;2.13;;
29940;SDS011;16801;53.562;10.038;2023-04-01T02:56:05;2.43;;;2.20;;
29940;SDS011;16801;53.562;10.038;2023-04-01T02:59:26;4.97;;;3.27;;
29940;SDS011;16801;53.562;10.038;2023-04-01T03:02:48;4.47;;;2.20;;
29940;SDS011;16801;53.562;10.038;2023-04-01T03:06:09;5.37;;;2.97;;
29940;SDS011;16801;53.562;10.038;2023-04-01T03:09:31;4.87;;;3.50;;
29940;SDS011;16801;53.562;10.038;2023-04-01T03:12:52;3.03;;;1.93;;
29940;SDS011;16801;53.562;10.038;2023-04-01T03:16:13;1.87;;;1.73;;
29940;SDS011;16801;53.562;10.038;2023-04-01T03:19:36;3.30;;;3.10;;
29940;SDS011;16801;53.562;10.038;2023-04-01T03:23:00;4.80;;;2.63;;
29940;SDS011;16801;53.562;10.038;2023-04-01T03:26:21;3.90;;;2.03;;
29940;SDS011;16801;53.562;10.038;2023-04-01T03:29:42;4.90;;;2.43;;
29940;SDS011;16801;53.562;10.038;2023-04-01T03:33:03;2.33;;;1.97;;
29940;SDS011;16801;53.562;10.038;2023-04-01T03:36:26;3.17;;;2.53;;
29940;SDS011;16801;53.562;10.038;2023-04-01T03:39:47;3.30;;;2.30;;
29940;SDS011;16801;53.562;10.038;2023-04-01T03:43:08;1.90;;;1.80;;
29940;SDS011;16801;53.562;10.038;2023-04-01T03:46:31;2.57;;;2.30;;
29940;SDS011;16801;53.562;10.038;2023-04-01T03:49:51;2.07;;;1.87;;
29940;SDS011;16801;53.562;10.038;2023-04-01T03:53:14;2.57;;;2.37;;
29940;SDS011;16801;53.562;10.038;2023-04-01T03:56:38;2.70;;;2.50;;
29940;SDS011;16801;53.562;10.038;2023-04-01T03:59:59;3.50;;;2.60;;
29940;SDS011;16801;53.562;10.038;2023-04-01T04:03:20;6.50;;;3.07;;
29940;SDS011;16801;53.562;10.038;2023-04-01T04:06:42;2.63;;;2.07;;
29940;SDS011;16801;53.562;10.038;2023-04-01T04:10:05;2.70;;;2.07;;
29940;SDS011;16801;53.562;10.038;2023-04-01T04:13:27;2.57;;;2.37;;
29940;SDS011;16801;53.562;10.038;2023-04-01T04:16:53;1.83;;;1.73;;
29940;SDS011;16801;53.562;10.038;2023-04-01T04:20:14;5.03;;;3.30;;
29940;SDS011;16801;53.562;10.038;2023-04-01T04:23:35;5.27;;;2.73;;
29940;SDS011;16801;53.562;10.038;2023-04-01T04:26:57;2.93;;;2.60;;
29940;SDS011;16801;53.562;10.038;2023-04-01T04:30:18;3.60;;;2.53;;
29940;SDS011;16801;53.562;10.038;2023-04-01T04:33:39;4.27;;;2.63;;
29940;SDS011;16801;53.562;10.038;2023-04-01T04:37:00;2.33;;;1.90;;
29940;SDS011;16801;53.562;10.038;2023-04-01T04:40:25;2.03;;;1.90;;
29940;SDS011;16801;53.562;10.038;2023-04-01T04:43:50;4.73;;;2.60;;
29940;SDS011;16801;53.562;10.038;2023-04-01T04:47:12;2.70;;;2.50;;
29940;SDS011;16801;53.562;10.038;2023-04-01T04:50:32;2.30;;;2.07;;
29940;SDS011;16801;53.562;10.038;2023-04-01T04:53:54;2.10;;;1.90;;
29940;SDS011;16801;53.562;10.038;2023-04-01T04:57:24;3.87;;;3.10;;
29940;SDS011;16801;53.562;10.038;2023-04-01T05:00:49;4.20;;;3.90;;
29940;SDS011;16801;53.562;10.038;2023-04-01T05:04:15;2.13;;;2.00;;
29940;SDS011;16801;53.562;10.038;2023-04-01T05:07:36;4.20;;;3.50;;
29940;SDS011;16801;53.562;10.038;2023-04-01T05:10:57;3.03;;;2.70;;
29940;SDS011;16801;53.562;10.038;2023-04-01T05:14:18;4.07;;;3.77;;
29940;SDS011;16801;53.562;10.038;2023-04-01T05:17:49;3.17;;;2.87;;
29940;SDS011;16801;53.562;10.038;2023-04-01T05:21:11;3.40;;;3.00;;
29940;SDS011;16801;53.562;10.038;2023-04-01T05:24:34;2.57;;;2.37;;
29940;SDS011;16801;53.562;10.038;2023-04-01T05:27:55;2.73;;;2.53;;
29940;SDS011;16801;53.562;10.038;2023-04-01T05:31:16;2.40;;;2.13;;
29940;SDS011;16801;53.562;10.038;2023-04-01T05:34:41;1.70;;;1.37;;
29940;SDS011;16801;53.562;10.038;2023-04-01T05:38:02;1.07;;;1.07;;
29940;SDS011;16801;53.562;10.038;2023-04-01T05:41:23;1.10;;;1.10;;
29940;SDS011;16801;53.562;10.038;2023-04-01T05:44:44;0.40;;;0.40;;
29940;SDS011;16801;53.562;10.038;2023-04-01T05:48:24;0.53;;;0.53;;
29940;SDS011;16801;53.562;10.038;2023-04-01T05:51:46;0.63;;;0.50;;
29940;SDS011;16801;53.562;10.038;2023-04-01T05:55:08;0.73;;;0.73;;
29940;SDS011;16801;53.562;10.038;2023-04-01T05:58:30;0.40;;;0.40;;
29940;SDS011;16801;53.562;10.038;2023-04-01T06:01:51;0.67;;;0.60;;
29940;SDS011;16801;53.562;10.038;2023-04-01T06:05:14;0.60;;;0.60;;
29940;SDS011;16801;53.562;10.038;2023-04-01T06:08:38;0.60;;;0.60;;
29940;SDS011;16801;53.562;10.038;2023-04-01T06:16:04;0.60;;;0.50;;
29940;SDS011;16801;53.562;10.038;2023-04-01T06:19:34;0.73;;;0.73;;
29940;SDS011;16801;53.562;10.038;2023-04-01T06:27:06;0.80;;;0.80;;
29940;SDS011;16801;53.562;10.038;2023-04-01T06:30:38;0.50;;;0.50;;
29940;SDS011;16801;53.562;10.038;2023-04-01T06:38:20;0.40;;;0.40;;
29940;SDS011;16801;53.562;10.038;2023-04-01T06:46:32;0.50;;;0.50;;
29940;SDS011;16801;53.562;10.038;2023-04-01T06:50:24;1.13;;;0.60;;
29940;SDS011;16801;53.562;10.038;2023-04-01T06:54:09;0.40;;;0.40;;
29940;SDS011;16801;53.562;10.038;2023-04-01T06:57:52;0.60;;;0.60;;
29940;SDS011;16801;53.562;10.038;2023-04-01T07:01:16;0.40;;;0.40;;
29940;SDS011;16801;53.562;10.038;2023-04-01T07:04:44;0.47;;;0.47;;
29940;SDS011;16801;53.562;10.038;2023-04-01T07:08:09;0.43;;;0.43;;
29940;SDS011;16801;53.562;10.038;2023-04-01T07:11:34;0.40;;;0.40;;
29940;SDS011;16801;53.562;10.038;2023-04-01T07:15:18;0.40;;;0.40;;
29940;SDS011;16801;53.562;10.038;2023-04-01T07:18:43;0.30;;;0.30;;
29940;SDS011;16801;53.562;10.038;2023-04-01T07:22:14;0.63;;;0.63;;
29940;SDS011;16801;53.562;10.038;2023-04-01T07:25:58;1.40;;;0.80;;
29940;SDS011;16801;53.562;10.038;2023-04-01T07:29:27;0.43;;;0.43;;
29940;SDS011;16801;53.562;10.038;2023-04-01T07:32:53;0.40;;;0.40;;
29940;SDS011;16801;53.562;10.038;2023-04-01T07:36:22;0.90;;;0.90;;
29940;SDS011;16801;53.562;10.038;2023-04-01T07:39:54;0.50;;;0.50;;
29940;SDS011;16801;53.562;10.038;2023-04-01T07:43:37;0.50;;;0.50;;
29940;SDS011;16801;53.562;10.038;2023-04-01T07:47:20;0.67;;;0.67;;
29940;SDS011;16801;53.562;10.038;2023-04-01T07:50:55;0.30;;;0.30;;
29940;SDS011;16801;53.562;10.038;2023-04-01T07:54:22;0.40;;;0.40;;
29940;SDS011;16801;53.562;10.038;2023-04-01T07:57:55;0.50;;;0.50;;
29940;SDS011;16801;53.562;10.038;2023-04-01T08:01:32;0.80;;;0.80;;
29940;SDS011;16801;53.562;10.038;2023-04-01T08:05:03;0.40;;;0.40;;
29940;SDS011;16801;53.562;10.038;2023-04-01T08:08:34;0.87;;;0.77;;
29940;SDS011;16801;53.562;10.038;2023-04-01T08:12:04;1.07;;;0.60;;
29940;SDS011;16801;53.562;10.038;2023-04-01T08:15:54;0.70;;;0.50;;
29940;SDS011;16801;53.562;10.038;2023-04-01T08:19:39;0.83;;;0.80;;
29940;SDS011;16801;53.562;10.038;2023-04-01T08:23:16;0.80;;;0.80;;
29940;SDS011;16801;53.562;10.038;2023-04-01T08:26:41;0.70;;;0.70;;
29940;SDS011;16801;53.562;10.038;2023-04-01T08:30:15;0.40;;;0.40;;
29940;SDS011;16801;53.562;10.038;2023-04-01T08:33:39;0.73;;;0.73;;
29940;SDS011;16801;53.562;10.038;2023-04-01T08:37:06;0.50;;;0.50;;
29940;SDS011;16801;53.562;10.038;2023-04-01T08:40:37;1.03;;;1.03;;
29940;SDS011;16801;53.562;10.038;2023-04-01T08:44:12;0.30;;;0.30;;
29940;SDS011;16801;53.562;10.038;2023-04-01T08:51:42;0.77;;;0.50;;
29940;SDS011;16801;53.562;10.038;2023-04-01T08:55:31;0.30;;;0.30;;
29940;SDS011;16801;53.562;10.038;2023-04-01T08:59:08;0.30;;;0.30;;
29940;SDS011;16801;53.562;10.038;2023-04-01T09:02:49;0.40;;;0.40;;
29940;SDS011;16801;53.562;10.038;2023-04-01T09:06:31;1.00;;;0.67;;
29940;SDS011;16801;53.562;10.038;2023-04-01T09:10:05;0.40;;;0.40;;
29940;SDS011;16801;53.562;10.038;2023-04-01T09:13:47;0.60;;;0.60;;
29940;SDS011;16801;53.562;10.038;2023-04-01T09:17:37;0.43;;;0.43;;
29940;SDS011;16801;53.562;10.038;2023-04-01T09:21:19;0.70;;;0.60;;
29940;SDS011;16801;53.562;10.038;2023-04-01T09:25:05;0.47;;;0.47;;
29940;SDS011;16801;53.562;10.038;2023-04-01T09:28:47;0.40;;;0.40;;
29940;SDS011;16801;53.562;10.038;2023-04-01T09:32:25;0.60;;;0.60;;
29940;SDS011;16801;53.562;10.038;2023-04-01T09:36:12;0.60;;;0.60;;
29940;SDS011;16801;53.562;10.038;2023-04-01T09:39:42;0.60;;;0.60;;
29940;SDS011;16801;53.562;10.038;2023-04-01T09:43:20;0.90;;;0.90;;
29940;SDS011;16801;53.562;10.038;2023-04-01T09:46:53;0.40;;;0.40;;
29940;SDS011;16801;53.562;10.038;2023-04-01T09:50:29;0.50;;;0.50;;
29940;SDS011;16801;53.562;10.038;2023-04-01T09:54:00;0.53;;;0.50;;
29940;SDS011;16801;53.562;10.038;2023-04-01T09:57:36;0.60;;;0.60;;
29940;SDS011;16801;53.562;10.038;2023-04-01T10:06:10;0.67;;;0.67;;
29940;SDS011;16801;53.562;10.038;2023-04-01T10:09:53;0.93;;;0.50;;
29940;SDS011;16801;53.562;10.038;2023-04-01T10:13:47;0.47;;;0.47;;
29940;SDS011;16801;53.562;10.038;2023-04-01T10:17:36;0.37;;;0.37;;
29940;SDS011;16801;53.562;10.038;2023-04-01T10:25:18;1.00;;;0.80;;
29940;SDS011;16801;53.562;10.038;2023-04-01T10:29:02;0.40;;;0.40;;
29940;SDS011;16801;53.562;10.038;2023-04-01T10:32:59;0.33;;;0.33;;
29940;SDS011;16801;53.562;10.038;2023-04-01T10:36:49;0.27;;;0.27;;
29940;SDS011;16801;53.562;10.038;2023-04-01T10:40:24;0.50;;;0.50;;
29940;SDS011;16801;53.562;10.038;2023-04-01T10:56:36;0.30;;;0.30;;
29940;SDS011;16801;53.562;10.038;2023-04-01T11:00:18;0.40;;;0.40;;
29940;SDS011;16801;53.562;10.038;2023-04-01T11:08:53;1.23;;;1.20;;
29940;SDS011;16801;53.562;10.038;2023-04-01T11:12:54;0.40;;;0.40;;
29940;SDS011;16801;53.562;10.038;2023-04-01T11:20:51;0.30;;;0.30;;
29940;SDS011;16801;53.562;10.038;2023-04-01T11:24:53;0.40;;;0.40;;
29940;SDS011;16801;53.562;10.038;2023-04-01T11:32:29;0.73;;;0.73;;
29940;SDS011;16801;53.562;10.038;2023-04-01T11:39:59;0.67;;;0.40;;
29940;SDS011;16801;53.562;10.038;2023-04-01T11:43:46;0.90;;;0.90;;
29940;SDS011;16801;53.562;10.038;2023-04-01T11:51:16;1.00;;;1.00;;
29940;SDS011;16801;53.562;10.038;2023-04-01T11:54:55;1.17;;;1.00;;
29940;SDS011;16801;53.562;10.038;2023-04-01T12:02:14;1.70;;;1.60;;
29940;SDS011;16801;53.562;10.038;2023-04-01T12:05:44;0.93;;;0.93;;
29940;SDS011;16801;53.562;10.038;2023-04-01T12:09:12;0.83;;;0.83;;
29940;SDS011;16801;53.562;10.038;2023-04-01T12:12:46;1.40;;;1.30;;
29940;SDS011;16801;53.562;10.038;2023-04-01T12:16:20;1.23;;;1.07;;
29940;SDS011;16801;53.562;10.038;2023-04-01T12:19:58;1.30;;;1.20;;
29940;SDS011;16801;53.562;10.038;2023-04-01T12:23:39;2.47;;;1.53;;
29940;SDS011;16801;53.562;10.038;2023-04-01T12:27:22;1.30;;;1.20;;
29940;SDS011;16801;53.562;10.038;2023-04-01T12:30:57;1.27;;;1.17;;
29940;SDS011;16801;53.562;10.038;2023-04-01T12:38:20;1.80;;;1.70;;
29940;SDS011;16801;53.562;10.038;2023-04-01T12:41:52;2.53;;;2.10;;
29940;SDS011;16801;53.562;10.038;2023-04-01T12:45:26;1.73;;;1.37;;
29940;SDS011;16801;53.562;10.038;2023-04-01T12:52:44;1.50;;;1.40;;
29940;SDS011;16801;53.562;10.038;2023-04-01T12:56:13;1.13;;;1.03;;
29940;SDS011;16801;53.562;10.038;2023-04-01T12:59:44;1.03;;;1.00;;
29940;SDS011;16801;53.562;10.038;2023-04-01T13:03:17;1.87;;;1.47;;
29940;SDS011;16801;53.562;10.038;2023-04-01T13:06:57;1.10;;;1.00;;
29940;SDS011;16801;53.562;10.038;2023-04-01T13:10:48;1.00;;;1.00;;
29940;SDS011;16801;53.562;10.038;2023-04-01T13:18:29;1.93;;;1.30;;
29940;SDS011;16801;53.562;10.038;2023-04-01T13:21:58;1.00;;;1.00;;
29940;SDS011;16801;53.562;10.038;2023-04-01T13:25:26;2.87;;;1.57;;
29940;SDS011;16801;53.562;10.038;2023-04-01T13:29:00;1.00;;;0.87;;
29940;SDS011;16801;53.562;10.038;2023-04-01T13:32:28;1.10;;;1.03;;
29940;SDS011;16801;53.562;10.038;2023-04-01T13:35:57;1.40;;;1.30;;
29940;SDS011;16801;53.562;10.038;2023-04-01T13:39:31;2.37;;;1.97;;
29940;SDS011;16801;53.562;10.038;2023-04-01T13:43:02;1.50;;;1.40;;
29940;SDS011;16801;53.562;10.038;2023-04-01T13:46:37;2.13;;;1.10;;
29940;SDS011;16801;53.562;10.038;2023-04-01T13:50:17;2.97;;;1.40;;
29940;SDS011;16801;53.562;10.038;2023-04-01T13:57:51;2.00;;;1.80;;
29940;SDS011;16801;53.562;10.038;2023-04-01T14:01:19;1.93;;;1.83;;
29940;SDS011;16801;53.562;10.038;2023-04-01T14:04:56;2.10;;;1.93;;
29940;SDS011;16801;53.562;10.038;2023-04-01T14:08:36;1.73;;;1.63;;
29940;SDS011;16801;53.562;10.038;2023-04-01T14:12:13;4.67;;;2.27;;
29940;SDS011;16801;53.562;10.038;2023-04-01T14:15:50;2.27;;;1.80;;
29940;SDS011;16801;53.562;10.038;2023-04-01T14:19:22;1.77;;;1.50;;
29940;SDS011;16801;53.562;10.038;2023-04-01T14:22:57;1.10;;;1.10;;
29940;SDS011;16801;53.562;10.038;2023-04-01T14:30:35;1.30;;;1.20;;
29940;SDS011;16801;53.562;10.038;2023-04-01T14:34:09;2.23;;;2.03;;
29940;SDS011;16801;53.562;10.038;2023-04-01T14:37:54;2.87;;;2.00;;
29940;SDS011;16801;53.562;10.038;2023-04-01T14:41:26;4.30;;;1.60;;
29940;SDS011;16801;53.562;10.038;2023-04-01T14:45:02;2.83;;;1.57;;
29940;SDS011;16801;53.562;10.038;2023-04-01T14:48:50;2.47;;;1.60;;
29940;SDS011;16801;53.562;10.038;2023-04-01T14:52:14;4.10;;;1.73;;
29940;SDS011;16801;53.562;10.038;2023-04-01T14:55:47;1.63;;;1.53;;
29940;SDS011;16801;53.562;10.038;2023-04-01T14:59:14;4.00;;;1.27;;
29940;SDS011;16801;53.562;10.038;2023-04-01T15:02:42;1.27;;;1.17;;
29940;SDS011;16801;53.562;10.038;2023-04-01T15:06:19;3.07;;;1.53;;
29940;SDS011;16801;53.562;10.038;2023-04-01T15:09:55;1.60;;;1.50;;
29940;SDS011;16801;53.562;10.038;2023-04-01T15:13:29;2.13;;;1.93;;
29940;SDS011;16801;53.562;10.038;2023-04-01T15:17:05;2.93;;;2.73;;
29940;SDS011;16801;53.562;10.038;2023-04-01T15:20:50;3.00;;;1.57;;
29940;SDS011;16801;53.562;10.038;2023-04-01T15:24:23;1.40;;;1.30;;
29940;SDS011;16801;53.562;10.038;2023-04-01T15:27:47;1.57;;;1.47;;
29940;SDS011;16801;53.562;10.038;2023-04-01T15:31:16;2.37;;;1.70;;
29940;SDS011;16801;53.562;10.038;2023-04-01T15:34:43;2.43;;;2.23;;
29940;SDS011;16801;53.562;10.038;2023-04-01T15:38:17;4.20;;;3.47;;
29940;SDS011;16801;53.562;10.038;2023-04-01T15:41:51;1.87;;;1.77;;
29940;SDS011;16801;53.562;10.038;2023-04-01T15:45:28;1.67;;;1.57;;
29940;SDS011;16801;53.562;10.038;2023-04-01T15:49:03;3.40;;;2.10;;
29940;SDS011;16801;53.562;10.038;2023-04-01T15:52:35;2.30;;;2.13;;
29940;SDS011;16801;53.562;10.038;2023-04-01T15:56:10;2.73;;;1.97;;
29940;SDS011;16801;53.562;10.038;2023-04-01T15:59:47;4.00;;;2.57;;
29940;SDS011;16801;53.562;10.038;2023-04-01T16:03:34;3.93;;;2.27;;
29940;SDS011;16801;53.562;10.038;2023-04-01T16:07:06;4.77;;;2.00;;
29940;SDS011;16801;53.562;10.038;2023-04-01T16:10:35;5.23;;;2.27;;
29940;SDS011;16801;53.562;10.038;2023-04-01T16:14:07;2.63;;;2.40;;
29940;SDS011;16801;53.562;10.038;2023-04-01T16:17:46;9.87;;;9.17;;
29940;SDS011;16801;53.562;10.038;2023-04-01T16:21:22;9.97;;;5.00;;
29940;SDS011;16801;53.562;10.038;2023-04-01T16:24:59;18.10;;;16.20;;
29940;SDS011;16801;53.562;10.038;2023-04-01T16:28:36;152.33;;;139.23;;
29940;SDS011;16801;53.562;10.038;2023-04-01T16:32:10;953.97;;;765.33;;
29940;SDS011;16801;53.562;10.038;2023-04-01T16:35:41;560.83;;;498.93;;
29940;SDS011;16801;53.562;10.038;2023-04-01T16:39:10;129.87;;;114.80;;
29940;SDS011;16801;53.562;10.038;2023-04-01T16:42:46;11.47;;;8.43;;
29940;SDS011;16801;53.562;10.038;2023-04-01T16:46:17;3.40;;;2.97;;
29940;SDS011;16801;53.562;10.038;2023-04-01T16:49:47;2.83;;;2.40;;
29940;SDS011;16801;53.562;10.038;2023-04-01T16:53:16;3.63;;;3.30;;
29940;SDS011;16801;53.562;10.038;2023-04-01T16:56:43;2.83;;;2.27;;
29940;SDS011;16801;53.562;10.038;2023-04-01T17:00:16;2.20;;;2.00;;
29940;SDS011;16801;53.562;10.038;2023-04-01T17:03:43;4.23;;;3.23;;
29940;SDS011;16801;53.562;10.038;2023-04-01T17:07:07;3.00;;;2.27;;
29940;SDS011;16801;53.562;10.038;2023-04-01T17:10:40;3.40;;;2.80;;
29940;SDS011;16801;53.562;10.038;2023-04-01T17:14:12;5.23;;;3.87;;
29940;SDS011;16801;53.562;10.038;2023-04-01T17:17:45;3.57;;;2.87;;
29940;SDS011;16801;53.562;10.038;2023-04-01T17:21:10;4.60;;;3.87;;
29940;SDS011;16801;53.562;10.038;2023-04-01T17:24:41;4.30;;;2.27;;
29940;SDS011;16801;53.562;10.038;2023-04-01T17:28:15;2.40;;;2.17;;
29940;SDS011;16801;53.562;10.038;2023-04-01T17:31:48;3.50;;;2.57;;
29940;SDS011;16801;53.562;10.038;2023-04-01T17:35:21;1.97;;;1.87;;
29940;SDS011;16801;53.562;10.038;2023-04-01T17:38:54;2.63;;;2.43;;
29940;SDS011;16801;53.562;10.038;2023-04-01T17:42:22;24.67;;;4.17;;
29940;SDS011;16801;53.562;10.038;2023-04-01T17:45:57;3.13;;;2.40;;
29940;SDS011;16801;53.562;10.038;2023-04-01T17:49:26;5.27;;;2.23;;
29940;SDS011;16801;53.562;10.038;2023-04-01T17:52:58;3.40;;;2.93;;
29940;SDS011;16801;53.562;10.038;2023-04-01T17:56:33;2.17;;;1.60;;
29940;SDS011;16801;53.562;10.038;2023-04-01T18:00:14;4.77;;;2.13;;
29940;SDS011;16801;53.562;10.038;2023-04-01T18:03:50;2.07;;;1.87;;
29940;SDS011;16801;53.562;10.038;2023-04-01T18:07:30;5.37;;;3.40;;
29940;SDS011;16801;53.562;10.038;2023-04-01T18:11:08;8.93;;;8.07;;
29940;SDS011;16801;53.562;10.038;2023-04-01T18:14:43;4.07;;;3.50;;
29940;SDS011;16801;53.562;10.038;2023-04-01T18:18:19;1.97;;;1.83;;
29940;SDS011;16801;53.562;10.038;2023-04-01T18:21:56;2.73;;;1.60;;
29940;SDS011;16801;53.562;10.038;2023-04-01T18:25:30;2.30;;;2.10;;
29940;SDS011;16801;53.562;10.038;2023-04-01T18:28:57;2.13;;;1.83;;
29940;SDS011;16801;53.562;10.038;2023-04-01T18:32:26;2.17;;;1.73;;
29940;SDS011;16801;53.562;10.038;2023-04-01T18:35:54;3.83;;;2.93;;
29940;SDS011;16801;53.562;10.038;2023-04-01T18:39:30;2.60;;;1.70;;
29940;SDS011;16801;53.562;10.038;2023-04-01T18:43:01;4.87;;;1.90;;
29940;SDS011;16801;53.562;10.038;2023-04-01T18:46:33;3.10;;;2.23;;
29940;SDS011;16801;53.562;10.038;2023-04-01T18:50:01;2.50;;;2.30;;
29940;SDS011;16801;53.562;10.038;2023-04-01T18:53:34;2.33;;;2.10;;
29940;SDS011;16801;53.562;10.038;2023-04-01T18:57:02;2.20;;;2.00;;
29940;SDS011;16801;53.562;10.038;2023-04-01T19:00:28;2.27;;;1.73;;
29940;SDS011;16801;53.562;10.038;2023-04-01T19:04:00;2.23;;;2.10;;
29940;SDS011;16801;53.562;10.038;2023-04-01T19:07:45;2.77;;;2.53;;
29940;SDS011;16801;53.562;10.038;2023-04-01T19:11:09;2.40;;;1.97;;
29940;SDS011;16801;53.562;10.038;2023-04-01T19:14:39;4.00;;;2.60;;
29940;SDS011;16801;53.562;10.038;2023-04-01T19:18:35;5.50;;;2.37;;
29940;SDS011;16801;53.562;10.038;2023-04-01T19:22:16;2.87;;;2.17;;
29940;SDS011;16801;53.562;10.038;2023-04-01T19:25:48;1.87;;;1.77;;
29940;SDS011;16801;53.562;10.038;2023-04-01T19:29:16;1.90;;;1.80;;
29940;SDS011;16801;53.562;10.038;2023-04-01T19:32:48;4.00;;;1.87;;
29940;SDS011;16801;53.562;10.038;2023-04-01T19:36:19;2.60;;;2.37;;
29940;SDS011;16801;53.562;10.038;2023-04-01T19:39:50;3.03;;;2.00;;
29940;SDS011;16801;53.562;10.038;2023-04-01T19:43:39;3.77;;;2.33;;
29940;SDS011;16801;53.562;10.038;2023-04-01T19:47:15;2.33;;;2.23;;
29940;SDS011;16801;53.562;10.038;2023-04-01T19:50:45;4.47;;;2.20;;
29940;SDS011;16801;53.562;10.038;2023-04-01T19:54:14;3.43;;;3.13;;
29940;SDS011;16801;53.562;10.038;2023-04-01T19:57:47;2.17;;;1.83;;
29940;SDS011;16801;53.562;10.038;2023-04-01T20:01:17;2.93;;;2.20;;
29940;SDS011;16801;53.562;10.038;2023-04-01T20:04:45;5.40;;;2.50;;
29940;SDS011;16801;53.562;10.038;2023-04-01T20:08:15;3.40;;;2.03;;
29940;SDS011;16801;53.562;10.038;2023-04-01T20:11:45;2.10;;;1.83;;
29940;SDS011;16801;53.562;10.038;2023-04-01T20:15:22;2.90;;;2.27;;
29940;SDS011;16801;53.562;10.038;2023-04-01T20:18:52;1.80;;;1.70;;
29940;SDS011;16801;53.562;10.038;2023-04-01T20:22:24;2.37;;;1.50;;
29940;SDS011;16801;53.562;10.038;2023-04-01T20:25:52;2.40;;;1.97;;
29940;SDS011;16801;53.562;10.038;2023-04-01T20:29:27;4.77;;;2.03;;
29940;SDS011;16801;53.562;10.038;2023-04-01T20:33:02;2.97;;;2.30;;
29940;SDS011;16801;53.562;10.038;2023-04-01T20:36:39;1.70;;;1.60;;
29940;SDS011;16801;53.562;10.038;2023-04-01T20:40:32;2.03;;;1.23;;
29940;SDS011;16801;53.562;10.038;2023-04-01T20:44:02;3.23;;;1.80;;
29940;SDS011;16801;53.562;10.038;2023-04-01T20:47:32;2.93;;;1.83;;
29940;SDS011;16801;53.562;10.038;2023-04-01T20:51:07;2.43;;;2.13;;
29940;SDS011;16801;53.562;10.038;2023-04-01T20:54:38;5.53;;;1.97;;
29940;SDS011;16801;53.562;10.038;2023-04-01T20:58:09;6.40;;;2.67;;
29940;SDS011;16801;53.562;10.038;2023-04-01T21:01:44;4.60;;;2.27;;
29940;SDS011;16801;53.562;10.038;2023-04-01T21:05:22;2.73;;;1.70;;
29940;SDS011;16801;53.562;10.038;2023-04-01T21:09:02;2.03;;;1.63;;
29940;SDS011;16801;53.562;10.038;2023-04-01T21:12:34;9.17;;;1.60;;
29940;SDS011;16801;53.562;10.038;2023-04-01T21:16:05;1.30;;;1.20;;
29940;SDS011;16801;53.562;10.038;2023-04-01T21:19:39;1.53;;;1.27;;
29940;SDS011;16801;53.562;10.038;2023-04-01T21:23:15;2.33;;;1.30;;
29940;SDS011;16801;53.562;10.038;2023-04-01T21:26:51;3.90;;;2.97;;
29940;SDS011;16801;53.562;10.038;2023-04-01T21:30:28;2.00;;;1.80;;
29940;SDS011;16801;53.562;10.038;2023-04-01T21:34:04;2.67;;;1.33;;
29940;SDS011;16801;53.562;10.038;2023-04-01T21:37:41;3.57;;;1.97;;
29940;SDS011;16801;53.562;10.038;2023-04-01T21:41:28;1.90;;;1.20;;
29940;SDS011;16801;53.562;10.038;2023-04-01T21:45:09;3.37;;;1.67;;
29940;SDS011;16801;53.562;10.038;2023-04-01T21:48:58;1.53;;;1.43;;
29940;SDS011;16801;53.562;10.038;2023-04-01T21:52:40;1.57;;;1.30;;
29940;SDS011;16801;53.562;10.038;2023-04-01T21:56:43;1.87;;;1.67;;
29940;SDS011;16801;53.562;10.038;2023-04-01T22:00:28;4.27;;;1.63;;
29940;SDS011;16801;53.562;10.038;2023-04-01T22:07:40;2.20;;;1.70;;
29940;SDS011;16801;53.562;10.038;2023-04-01T22:11:08;1.40;;;1.30;;
29940;SDS011;16801;53.562;10.038;2023-04-01T22:14:41;2.00;;;1.50;;
29940;SDS011;16801;53.562;10.038;2023-04-01T22:18:11;2.57;;;2.47;;
29940;SDS011;16801;53.562;10.038;2023-04-01T22:21:42;1.43;;;1.30;;
29940;SDS011;16801;53.562;10.038;2023-04-01T22:25:12;3.23;;;1.47;;